createdAt,value
2022-09-21T00:01:19.880Z,1.40
2022-09-21T00:03:47.475Z,1.60
2022-09-21T00:06:17.904Z,1.77
2022-09-21T00:08:45.789Z,1.50
2022-09-21T00:11:14.843Z,1.27
2022-09-21T00:13:46.609Z,1.40
2022-09-21T00:16:15.386Z,1.30
2022-09-21T00:18:42.156Z,1.50
2022-09-21T00:21:11.073Z,1.40
2022-09-21T00:23:38.366Z,1.47
2022-09-21T00:26:11.153Z,1.50
2022-09-21T00:28:38.487Z,1.20
2022-09-21T00:31:07.537Z,1.70
2022-09-21T00:33:34.763Z,1.67
2022-09-21T00:36:09.798Z,1.60
2022-09-21T00:38:37.345Z,1.93
2022-09-21T00:41:06.549Z,1.73
2022-09-21T00:43:38.111Z,1.70
2022-09-21T00:46:17.459Z,2.03
2022-09-21T00:48:45.629Z,2.37
2022-09-21T00:51:13.052Z,2.40
2022-09-21T00:53:40.104Z,2.20
2022-09-21T00:56:07.772Z,1.90
2022-09-21T00:58:40.472Z,2.17
2022-09-21T01:01:07.443Z,1.80
2022-09-21T01:03:34.506Z,1.90
2022-09-21T01:06:01.280Z,2.03
2022-09-21T01:08:29.156Z,1.63
2022-09-21T01:11:25.803Z,1.77
2022-09-21T01:14:11.262Z,1.80
2022-09-21T01:16:51.308Z,1.60
2022-09-21T01:19:39.861Z,1.70
2022-09-21T01:22:15.427Z,1.80
2022-09-21T01:25:00.854Z,1.33
2022-09-21T01:27:39.398Z,1.40
2022-09-21T01:30:13.012Z,1.17
2022-09-21T01:32:46.578Z,1.73
2022-09-21T01:35:21.209Z,2.13
2022-09-21T01:37:54.349Z,1.60
2022-09-21T01:40:30.920Z,2.30
2022-09-21T01:43:02.812Z,1.83
2022-09-21T01:45:40.728Z,1.60
2022-09-21T01:48:08.066Z,1.30
2022-09-21T01:50:46.726Z,1.10
2022-09-21T01:53:36.533Z,1.37
2022-09-21T01:56:22.073Z,1.00
2022-09-21T01:58:58.550Z,1.80
2022-09-21T02:01:30.518Z,1.00
2022-09-21T02:04:05.730Z,1.00
2022-09-21T02:06:32.736Z,1.30
2022-09-21T02:08:59.736Z,1.27
2022-09-21T02:11:26.816Z,1.20
2022-09-21T02:13:55.151Z,1.10
2022-09-21T02:16:56.347Z,1.40
2022-09-21T02:19:37.280Z,1.20
2022-09-21T02:22:12.528Z,1.50
2022-09-21T02:24:49.660Z,1.10
2022-09-21T02:27:40.574Z,1.10
2022-09-21T02:30:09.266Z,1.20
2022-09-21T02:33:04.881Z,1.20
2022-09-21T02:35:40.475Z,1.40
2022-09-21T02:38:18.968Z,1.60
2022-09-21T02:40:52.397Z,1.30
2022-09-21T02:43:25.796Z,1.20
2022-09-21T02:45:58.782Z,1.23
2022-09-21T02:48:39.025Z,1.13
2022-09-21T02:51:11.867Z,1.20
2022-09-21T02:53:41.525Z,1.10
2022-09-21T02:56:11.421Z,1.40
2022-09-21T02:58:43.569Z,1.50
2022-09-21T03:01:15.261Z,1.30
2022-09-21T03:03:41.923Z,1.30
2022-09-21T03:06:08.731Z,1.17
2022-09-21T03:08:35.346Z,1.10
2022-09-21T03:11:02.809Z,1.10
2022-09-21T03:13:29.959Z,1.33
2022-09-21T03:16:05.476Z,1.40
2022-09-21T03:18:32.879Z,1.20
2022-09-21T03:21:00.498Z,1.13
2022-09-21T03:23:27.131Z,1.23
2022-09-21T03:25:54.578Z,1.60
2022-09-21T03:28:22.132Z,1.20
2022-09-21T03:30:50.299Z,1.13
2022-09-21T03:33:19.098Z,1.20
2022-09-21T03:35:47.882Z,1.23
2022-09-21T03:38:16.728Z,1.07
2022-09-21T03:40:50.105Z,1.20
2022-09-21T03:43:17.358Z,1.30
2022-09-21T03:45:45.565Z,1.23
2022-09-21T03:48:12.850Z,1.20
2022-09-21T03:50:39.579Z,1.10
2022-09-21T03:53:06.847Z,1.20
2022-09-21T03:55:33.569Z,2.07
2022-09-21T03:58:00.397Z,1.20
2022-09-21T04:00:27.896Z,1.00
2022-09-21T04:02:54.998Z,1.03
2022-09-21T04:05:22.024Z,1.60
2022-09-21T04:07:48.938Z,1.20
2022-09-21T04:10:19.476Z,1.73
2022-09-21T04:12:46.952Z,1.20
2022-09-21T04:15:19.511Z,1.20
2022-09-21T04:17:50.946Z,1.03
2022-09-21T04:20:17.630Z,1.10
2022-09-21T04:22:46.151Z,1.30
2022-09-21T04:25:13.402Z,0.87
2022-09-21T04:27:40.915Z,1.10
2022-09-21T04:30:08.445Z,1.20
2022-09-21T04:32:35.064Z,1.13
2022-09-21T04:35:01.701Z,1.10
2022-09-21T04:37:28.296Z,2.47
2022-09-21T04:39:54.912Z,1.20
2022-09-21T04:42:21.648Z,1.37
2022-09-21T04:44:48.285Z,1.27
2022-09-21T04:47:15.353Z,1.27
2022-09-21T04:49:42.013Z,1.50
2022-09-21T04:52:08.645Z,1.50
2022-09-21T04:54:35.462Z,1.27
2022-09-21T04:57:02.181Z,1.30
2022-09-21T04:59:28.806Z,1.50
2022-09-21T05:01:55.438Z,1.67
2022-09-21T05:04:22.153Z,1.03
2022-09-21T05:06:48.849Z,1.53
2022-09-21T05:09:34.443Z,1.33
2022-09-21T05:12:01.215Z,1.63
2022-09-21T05:14:27.829Z,1.23
2022-09-21T05:16:54.549Z,1.47
2022-09-21T05:19:22.734Z,1.57
2022-09-21T05:21:49.410Z,1.50
2022-09-21T05:24:16.242Z,1.53
2022-09-21T05:26:43.265Z,2.10
2022-09-21T05:29:10.265Z,1.70
2022-09-21T05:31:48.684Z,1.40
2022-09-21T05:34:27.773Z,1.83
2022-09-21T05:37:10.240Z,1.67
2022-09-21T05:39:37.322Z,1.90
2022-09-21T05:42:04.361Z,1.53
2022-09-21T05:44:31.387Z,1.60
2022-09-21T05:47:10.109Z,1.50
2022-09-21T05:49:39.848Z,1.40
2022-09-21T05:52:30.006Z,1.70
2022-09-21T05:55:02.526Z,1.83
2022-09-21T05:57:54.585Z,1.87
2022-09-21T06:00:22.854Z,1.77
2022-09-21T06:03:15.496Z,1.63
2022-09-21T06:05:44.682Z,1.53
2022-09-21T06:08:11.293Z,1.70
2022-09-21T06:10:37.963Z,2.20
2022-09-21T06:13:04.715Z,2.10
2022-09-21T06:15:31.385Z,2.30
2022-09-21T06:17:59.244Z,2.27
2022-09-21T06:20:25.963Z,2.17
2022-09-21T06:22:52.602Z,2.17
2022-09-21T06:25:20.359Z,2.13
2022-09-21T06:27:47.080Z,2.57
2022-09-21T06:30:13.862Z,2.40
2022-09-21T06:32:40.574Z,2.90
2022-09-21T06:35:07.653Z,2.70
2022-09-21T06:37:34.341Z,2.13
2022-09-21T06:40:01.095Z,2.50
2022-09-21T06:42:28.102Z,2.20
2022-09-21T06:44:55.546Z,2.13
2022-09-21T06:47:22.184Z,2.77
2022-09-21T06:49:48.886Z,2.30
2022-09-21T06:52:15.518Z,2.47
2022-09-21T06:54:42.354Z,3.03
2022-09-21T06:57:08.984Z,2.87
2022-09-21T06:59:35.649Z,2.60
2022-09-21T07:02:02.330Z,2.70
2022-09-21T07:04:29.365Z,2.13
2022-09-21T07:06:56.052Z,2.67
2022-09-21T07:12:09.720Z,2.90
2022-09-21T07:14:36.392Z,3.30
2022-09-21T07:17:03.037Z,2.93
2022-09-21T07:19:29.802Z,3.67
2022-09-21T07:21:56.462Z,2.50
2022-09-21T07:24:23.307Z,3.23
2022-09-21T07:26:50.426Z,3.50
2022-09-21T07:29:17.089Z,2.87
2022-09-21T07:31:45.117Z,3.53
2022-09-21T07:34:11.924Z,3.83
2022-09-21T07:36:38.606Z,4.00
2022-09-21T07:39:05.597Z,4.47
2022-09-21T07:41:32.359Z,3.80
2022-09-21T07:43:59.087Z,3.77
2022-09-21T07:46:25.792Z,3.50
2022-09-21T07:48:56.633Z,4.00
2022-09-21T07:51:24.173Z,5.77
2022-09-21T07:53:58.823Z,4.47
2022-09-21T07:56:25.810Z,4.10
2022-09-21T07:59:07.485Z,4.03
2022-09-21T08:01:39.458Z,4.23
2022-09-21T08:04:09.522Z,4.73
2022-09-21T08:06:39.828Z,3.60
2022-09-21T08:09:06.931Z,3.57
2022-09-21T08:11:33.751Z,3.20
2022-09-21T08:14:04.168Z,3.10
2022-09-21T08:16:31.714Z,2.33
2022-09-21T08:18:58.504Z,2.47
2022-09-21T08:21:25.189Z,2.67
2022-09-21T08:23:51.861Z,2.53
2022-09-21T08:26:20.450Z,2.67
2022-09-21T08:28:49.227Z,2.37
2022-09-21T08:31:18.926Z,2.10
2022-09-21T08:33:46.616Z,1.73
2022-09-21T08:36:13.270Z,1.70
2022-09-21T08:38:39.964Z,1.57
2022-09-21T08:41:20.395Z,1.53
2022-09-21T08:43:54.498Z,1.67
2022-09-21T08:46:28.255Z,1.10
2022-09-21T08:49:06.953Z,1.10
2022-09-21T08:51:37.050Z,1.57
2022-09-21T08:54:19.185Z,1.20
2022-09-21T08:57:04.351Z,0.90
2022-09-21T08:59:31.937Z,1.23
2022-09-21T09:02:07.711Z,1.00
2022-09-21T09:04:52.698Z,0.93
2022-09-21T09:07:25.874Z,0.90
2022-09-21T09:10:34.078Z,0.93
2022-09-21T09:13:06.150Z,0.80
2022-09-21T09:15:35.805Z,0.97
2022-09-21T09:18:43.779Z,0.60
2022-09-21T09:21:26.224Z,0.90
2022-09-21T09:24:03.109Z,1.17
2022-09-21T09:26:46.166Z,0.90
2022-09-21T09:29:50.200Z,0.90
2022-09-21T09:32:18.030Z,0.70
2022-09-21T09:35:25.707Z,0.93
2022-09-21T09:37:58.300Z,1.20
2022-09-21T09:40:46.935Z,0.60
2022-09-21T09:44:08.226Z,0.80
2022-09-21T09:46:57.170Z,0.93
2022-09-21T09:50:04.267Z,1.10
2022-09-21T09:52:32.726Z,1.20
2022-09-21T09:55:00.621Z,0.97
2022-09-21T09:57:33.065Z,1.17
2022-09-21T10:00:09.159Z,1.07
2022-09-21T10:02:58.673Z,1.40
2022-09-21T10:05:33.250Z,1.33
2022-09-21T10:08:00.102Z,1.50
2022-09-21T10:10:32.397Z,2.00
2022-09-21T10:13:16.505Z,1.33
2022-09-21T10:15:51.450Z,1.27
2022-09-21T10:18:18.097Z,1.90
2022-09-21T10:20:54.569Z,1.90
2022-09-21T10:23:21.557Z,1.00
2022-09-21T10:25:57.642Z,1.13
2022-09-21T10:28:25.000Z,0.87
2022-09-21T10:31:18.760Z,1.30
2022-09-21T10:33:53.369Z,1.17
2022-09-21T10:36:28.968Z,1.13
2022-09-21T10:38:56.076Z,1.20
2022-09-21T10:41:23.193Z,1.10
2022-09-21T10:43:50.828Z,1.10
2022-09-21T10:46:18.016Z,0.87
2022-09-21T10:48:46.210Z,1.10
2022-09-21T10:51:29.131Z,1.13
2022-09-21T10:53:56.297Z,0.83
2022-09-21T10:56:23.660Z,1.03
2022-09-21T10:59:12.894Z,1.10
2022-09-21T11:01:45.803Z,1.17
2022-09-21T11:04:23.865Z,0.93
2022-09-21T11:07:17.620Z,1.50
2022-09-21T11:09:47.176Z,1.17
2022-09-21T11:12:43.429Z,0.87
2022-09-21T11:15:13.102Z,0.90
2022-09-21T11:17:43.499Z,1.20
2022-09-21T11:20:22.945Z,1.20
2022-09-21T11:23:10.831Z,1.00
2022-09-21T11:25:50.483Z,1.00
2022-09-21T11:28:40.766Z,0.90
2022-09-21T11:31:33.313Z,0.73
2022-09-21T11:34:21.319Z,1.63
2022-09-21T11:37:11.527Z,0.83
2022-09-21T11:40:01.173Z,0.87
2022-09-21T11:42:42.325Z,0.60
2022-09-21T11:45:41.154Z,0.60
2022-09-21T11:48:16.633Z,1.00
2022-09-21T11:51:00.821Z,0.60
2022-09-21T11:53:43.476Z,0.80
2022-09-21T11:56:23.444Z,0.60
2022-09-21T11:59:00.680Z,0.57
2022-09-21T12:01:36.659Z,0.47
2022-09-21T12:04:09.148Z,0.70
2022-09-21T12:07:24.361Z,0.70
2022-09-21T12:10:07.546Z,0.70
2022-09-21T12:12:40.593Z,0.73
2022-09-21T12:15:14.155Z,0.77
2022-09-21T12:18:03.532Z,0.60
2022-09-21T12:20:36.302Z,0.97
2022-09-21T12:23:14.710Z,0.70
2022-09-21T12:25:46.821Z,0.80
2022-09-21T12:28:27.674Z,0.40
2022-09-21T12:31:01.034Z,0.63
2022-09-21T12:33:35.035Z,0.87
2022-09-21T12:36:16.953Z,0.70
2022-09-21T12:39:05.738Z,0.50
2022-09-21T12:41:32.480Z,0.40
2022-09-21T12:44:30.897Z,0.50
2022-09-21T12:47:10.604Z,0.70
2022-09-21T12:49:43.305Z,0.70
2022-09-21T12:52:22.654Z,0.63
2022-09-21T12:54:52.364Z,0.60
2022-09-21T12:57:46.000Z,0.40
2022-09-21T13:00:22.027Z,0.77
2022-09-21T13:03:09.967Z,0.30
2022-09-21T13:06:10.398Z,1.43
2022-09-21T13:08:41.011Z,0.40
2022-09-21T13:11:08.826Z,3.93
2022-09-21T13:13:39.848Z,0.70
2022-09-21T13:16:07.977Z,0.80
2022-09-21T13:18:36.763Z,0.60
2022-09-21T13:21:22.103Z,0.47
2022-09-21T13:24:26.105Z,0.33
2022-09-21T13:26:56.732Z,0.40
2022-09-21T13:29:23.324Z,0.70
2022-09-21T13:31:57.560Z,0.50
2022-09-21T13:34:39.200Z,0.60
2022-09-21T13:37:11.767Z,0.60
2022-09-21T13:40:04.583Z,0.77
2022-09-21T13:42:34.547Z,0.60
2022-09-21T13:45:13.726Z,0.40
2022-09-21T13:47:42.632Z,0.33
2022-09-21T13:50:26.886Z,0.60
2022-09-21T13:52:59.938Z,0.33
2022-09-21T13:55:38.312Z,0.70
2022-09-21T13:58:21.256Z,0.70
2022-09-21T14:00:59.016Z,0.70
2022-09-21T14:03:39.995Z,0.80
2022-09-21T14:06:17.595Z,0.53
2022-09-21T14:09:04.814Z,0.50
2022-09-21T14:11:33.820Z,0.60
2022-09-21T14:14:26.793Z,0.70
2022-09-21T14:16:59.104Z,0.50
2022-09-21T14:19:26.881Z,0.53
2022-09-21T14:22:08.394Z,0.50
2022-09-21T14:24:42.769Z,0.50
2022-09-21T14:27:31.293Z,0.90
2022-09-21T14:30:06.402Z,0.70
2022-09-21T14:32:55.813Z,0.60
2022-09-21T14:35:30.272Z,0.53
2022-09-21T14:38:04.582Z,0.63
2022-09-21T14:40:39.163Z,0.97
2022-09-21T14:43:15.515Z,0.90
2022-09-21T14:45:55.902Z,0.67
2022-09-21T14:48:58.540Z,0.50
2022-09-21T14:51:55.833Z,0.60
2022-09-21T14:54:45.392Z,0.70
2022-09-21T14:57:37.511Z,1.93
2022-09-21T15:00:34.976Z,0.70
2022-09-21T15:03:30.583Z,1.93
2022-09-21T15:06:43.148Z,1.57
2022-09-21T15:09:54.878Z,1.30
2022-09-21T15:12:38.081Z,0.60
2022-09-21T15:15:29.520Z,0.60
2022-09-21T15:18:00.047Z,0.50
2022-09-21T15:20:29.537Z,8.37
2022-09-21T15:22:58.534Z,1.20
2022-09-21T15:25:28.888Z,0.67
2022-09-21T15:27:55.853Z,0.43
2022-09-21T15:30:26.938Z,0.40
2022-09-21T15:33:00.003Z,0.60
2022-09-21T15:35:32.513Z,0.50
2022-09-21T15:38:01.203Z,0.60
2022-09-21T15:40:36.819Z,0.60
2022-09-21T15:43:05.587Z,1.87
2022-09-21T15:45:55.933Z,0.63
2022-09-21T15:48:27.454Z,0.53
2022-09-21T15:50:59.128Z,1.17
2022-09-21T15:53:30.983Z,0.93
2022-09-21T15:56:00.978Z,0.60
2022-09-21T15:58:37.229Z,0.73
2022-09-21T16:01:16.654Z,0.60
2022-09-21T16:03:43.709Z,0.60
2022-09-21T16:06:26.905Z,12.47
2022-09-21T16:08:54.229Z,1.10
2022-09-21T16:11:26.889Z,0.93
2022-09-21T16:14:33.180Z,0.60
2022-09-21T16:17:12.211Z,0.77
2022-09-21T16:20:04.345Z,0.80
2022-09-21T16:22:41.101Z,0.50
2022-09-21T16:25:37.110Z,0.43
2022-09-21T16:28:35.418Z,0.83
2022-09-21T16:31:23.015Z,0.73
2022-09-21T16:33:49.726Z,0.60
2022-09-21T16:36:34.335Z,0.67
2022-09-21T16:39:06.041Z,0.90
2022-09-21T16:41:41.850Z,0.57
2022-09-21T16:44:20.860Z,0.50
2022-09-21T16:46:55.379Z,0.50
2022-09-21T16:49:26.811Z,1.17
2022-09-21T16:51:57.162Z,0.70
2022-09-21T16:54:25.992Z,0.40
2022-09-21T16:56:58.481Z,1.23
2022-09-21T16:59:26.046Z,1.07
2022-09-21T17:01:56.631Z,1.07
2022-09-21T17:04:26.898Z,0.83
2022-09-21T17:06:54.888Z,0.77
2022-09-21T17:09:32.427Z,0.53
2022-09-21T17:12:01.517Z,1.00
2022-09-21T17:14:35.214Z,1.30
2022-09-21T17:17:12.592Z,0.93
2022-09-21T17:19:42.015Z,0.80
2022-09-21T17:22:17.291Z,1.00
2022-09-21T17:24:51.657Z,0.97
2022-09-21T17:27:21.813Z,1.70
2022-09-21T17:29:49.874Z,1.63
2022-09-21T17:32:20.510Z,2.50
2022-09-21T17:34:58.764Z,1.33
2022-09-21T17:37:25.774Z,1.20
2022-09-21T17:39:53.614Z,0.90
2022-09-21T17:42:22.924Z,0.83
2022-09-21T17:44:59.462Z,0.80
2022-09-21T17:47:32.961Z,1.33
2022-09-21T17:50:11.730Z,1.50
2022-09-21T17:52:58.439Z,1.17
2022-09-21T17:55:25.754Z,1.43
2022-09-21T17:58:14.175Z,2.47
2022-09-21T18:00:58.710Z,2.60
2022-09-21T18:03:28.079Z,2.80
2022-09-21T18:06:00.620Z,2.23
2022-09-21T18:08:33.833Z,1.77
2022-09-21T18:11:14.177Z,1.33
2022-09-21T18:13:48.029Z,1.47
2022-09-21T18:16:45.587Z,1.60
2022-09-21T18:19:15.264Z,1.60
2022-09-21T18:21:44.630Z,1.40
2022-09-21T18:24:20.384Z,1.67
2022-09-21T18:26:49.074Z,1.93
2022-09-21T18:29:39.277Z,1.33
2022-09-21T18:32:28.550Z,1.40
2022-09-21T18:35:13.261Z,1.47
2022-09-21T18:38:17.492Z,1.00
2022-09-21T18:40:44.295Z,1.30
2022-09-21T18:43:32.491Z,1.37
2022-09-21T18:46:03.524Z,1.03
2022-09-21T18:49:09.203Z,1.10
2022-09-21T18:51:53.943Z,1.03
2022-09-21T18:54:23.053Z,0.90
2022-09-21T18:56:50.020Z,1.20
2022-09-21T18:59:17.541Z,1.17
2022-09-21T19:01:46.921Z,1.57
2022-09-21T19:04:14.603Z,1.50
2022-09-21T19:06:53.139Z,1.50
2022-09-21T19:09:43.144Z,1.53
2022-09-21T19:12:33.704Z,1.30
2022-09-21T19:15:42.063Z,1.67
2022-09-21T19:18:28.365Z,2.70
2022-09-21T19:21:08.409Z,3.13
2022-09-21T19:24:06.587Z,3.53
2022-09-21T19:26:49.949Z,3.50
2022-09-21T19:29:40.459Z,3.97
2022-09-21T19:32:15.685Z,4.70
2022-09-21T19:34:42.758Z,5.57
2022-09-21T19:37:09.604Z,5.20
2022-09-21T19:39:37.256Z,5.67
2022-09-21T19:42:06.854Z,5.43
2022-09-21T19:45:15.507Z,5.10
2022-09-21T19:47:50.668Z,5.00
2022-09-21T19:50:26.066Z,3.80
2022-09-21T19:53:13.386Z,4.20
2022-09-21T19:56:01.739Z,4.17
2022-09-21T19:58:47.324Z,4.93
2022-09-21T20:01:18.140Z,5.27
2022-09-21T20:03:46.778Z,5.63
2022-09-21T20:06:43.544Z,4.83
2022-09-21T20:09:18.098Z,4.40
2022-09-21T20:12:07.784Z,4.13
2022-09-21T20:14:46.424Z,3.30
2022-09-21T20:17:20.613Z,3.97
2022-09-21T20:20:15.481Z,3.60
2022-09-21T20:22:42.361Z,3.80
2022-09-21T20:25:15.549Z,3.53
2022-09-21T20:27:47.199Z,3.33
2022-09-21T20:30:16.178Z,2.73
2022-09-21T20:32:46.170Z,3.30
2022-09-21T20:35:18.977Z,3.00
2022-09-21T20:37:45.936Z,3.03
2022-09-21T20:40:13.552Z,2.83
2022-09-21T20:42:41.067Z,2.40
2022-09-21T20:45:10.330Z,2.70
2022-09-21T20:47:37.292Z,2.27
2022-09-21T20:50:04.992Z,2.13
2022-09-21T20:52:31.641Z,1.80
2022-09-21T20:54:58.269Z,1.80
2022-09-21T20:57:25.360Z,1.90
2022-09-21T20:59:52.313Z,1.73
2022-09-21T21:02:19.051Z,1.90
2022-09-21T21:04:45.707Z,1.80
2022-09-21T21:07:12.405Z,2.10
2022-09-21T21:09:39.118Z,1.70
2022-09-21T21:12:05.977Z,1.43
2022-09-21T21:14:32.762Z,1.73
2022-09-21T21:16:59.399Z,1.30
2022-09-21T21:19:26.113Z,1.27
2022-09-21T21:21:52.716Z,1.60
2022-09-21T21:24:37.745Z,1.63
2022-09-21T21:27:04.580Z,1.70
2022-09-21T21:29:32.448Z,1.73
2022-09-21T21:31:59.759Z,1.77
2022-09-21T21:34:26.594Z,1.57
2022-09-21T21:36:53.490Z,1.63
2022-09-21T21:39:20.230Z,1.90
2022-09-21T21:41:46.993Z,1.97
2022-09-21T21:44:13.690Z,1.50
2022-09-21T21:46:40.308Z,1.70
2022-09-21T21:49:07.127Z,1.70
2022-09-21T21:51:33.839Z,1.90
2022-09-21T21:54:00.521Z,2.00
2022-09-21T21:56:27.259Z,1.57
2022-09-21T21:58:54.577Z,1.70
2022-09-21T22:01:26.365Z,1.70
2022-09-21T22:03:55.348Z,1.77
2022-09-21T22:06:22.638Z,1.70
2022-09-21T22:08:51.016Z,1.80
2022-09-21T22:11:18.566Z,1.97
2022-09-21T22:13:45.845Z,2.10
2022-09-21T22:16:15.922Z,2.33
2022-09-21T22:18:43.797Z,2.20
2022-09-21T22:21:13.025Z,1.80
2022-09-21T22:23:39.957Z,1.80
2022-09-21T22:26:10.211Z,1.60
2022-09-21T22:28:38.963Z,2.10
2022-09-21T22:31:11.383Z,1.50
2022-09-21T22:33:38.688Z,1.37
2022-09-21T22:36:16.718Z,1.60
2022-09-21T22:38:44.062Z,1.30
2022-09-21T22:41:13.288Z,1.53
2022-09-21T22:43:40.642Z,1.50
2022-09-21T22:46:07.750Z,1.40
2022-09-21T22:48:35.142Z,1.30
2022-09-21T22:51:02.888Z,1.43
2022-09-21T22:53:31.377Z,1.20
2022-09-21T22:56:12.426Z,1.30
2022-09-21T22:58:42.450Z,1.27
2022-09-21T23:01:18.065Z,1.30
2022-09-21T23:03:47.179Z,1.30
2022-09-21T23:06:16.710Z,1.40
2022-09-21T23:08:48.829Z,1.33
2022-09-21T23:11:30.191Z,1.20
2022-09-21T23:13:58.003Z,1.60
2022-09-21T23:16:26.402Z,1.37
2022-09-21T23:18:53.905Z,1.40
2022-09-21T23:21:23.280Z,1.13
2022-09-21T23:23:50.230Z,1.43
2022-09-21T23:26:19.624Z,1.10
2022-09-21T23:28:51.844Z,1.67
2022-09-21T23:31:19.164Z,1.73
2022-09-21T23:33:51.479Z,1.13
2022-09-21T23:36:22.422Z,1.37
2022-09-21T23:38:49.614Z,1.27
2022-09-21T23:41:19.510Z,1.20
2022-09-21T23:43:46.937Z,1.10
2022-09-21T23:46:16.498Z,1.23
2022-09-21T23:48:43.977Z,1.17
2022-09-21T23:51:11.305Z,1.10
2022-09-21T23:53:38.804Z,1.30
2022-09-21T23:56:06.525Z,1.23
2022-09-21T23:58:33.761Z,1.20
